Time;durP1;ratioP1;P1;durP2;ratioP2;P2;SDS_P1;SDS_P2;PMS_P1;PMS_P2;Temp;Humidity;BMP_temperature;BMP_pressure;BME280_temperature;BME280_humidity;BME280_pressure;Samples;Min_cycle;Max_cycle;Signal;HPM_P1;HPM_P2
2023/03/08 00:00:16;;;;;;;5.72;1.58;;;;;;;;;;5033557;28;20495;-76
2023/03/08 00:02:42;;;;;;;4.13;1.30;;;;;;;;;;5050475;28;20423;-76
2023/03/08 00:05:09;;;;;;;5.05;1.50;;;;;;;;;;5070563;28;20487;-76
2023/03/08 00:07:35;;;;;;;4.78;1.30;;;;;;;;;;5054280;28;20043;-76
2023/03/08 00:10:01;;;;;;;5.07;1.70;;;;;;;;;;5053273;28;20045;-76
2023/03/08 00:12:28;;;;;;;5.68;1.30;;;;;;;;;;5053192;28;20509;-76
2023/03/08 00:14:54;;;;;;;6.10;1.30;;;;;;;;;;5053055;28;20053;-76
2023/03/08 00:17:20;;;;;;;4.72;1.30;;;;;;;;;;5052670;28;20048;-76
2023/03/08 00:19:46;;;;;;;4.70;1.20;;;;;;;;;;5052916;28;20049;-76
2023/03/08 00:22:12;;;;;;;4.55;1.20;;;;;;;;;;5053458;28;20507;-76
2023/03/08 00:24:38;;;;;;;3.72;1.20;;;;;;;;;;5052701;28;20143;-76
2023/03/08 00:27:04;;;;;;;5.57;1.10;;;;;;;;;;5052891;28;20037;-76
2023/03/08 00:29:31;;;;;;;3.33;1.20;;;;;;;;;;5052717;28;20037;-76
2023/03/08 00:31:57;;;;;;;3.63;1.30;;;;;;;;;;5053560;28;20053;-76
2023/03/08 00:34:23;;;;;;;5.45;1.02;;;;;;;;;;5052902;28;20047;-75
2023/03/08 00:36:49;;;;;;;4.70;1.10;;;;;;;;;;5069495;28;20044;-75
2023/03/08 00:39:15;;;;;;;4.20;1.10;;;;;;;;;;5052882;28;20506;-75
2023/03/08 00:41:41;;;;;;;4.60;1.10;;;;;;;;;;5052425;28;20119;-75
2023/03/08 00:44:08;;;;;;;4.10;0.90;;;;;;;;;;5052932;28;20495;-76
2023/03/08 00:46:34;;;;;;;4.90;0.98;;;;;;;;;;5053627;28;20553;-76
2023/03/08 00:49:00;;;;;;;5.32;0.90;;;;;;;;;;5052483;28;20041;-76
2023/03/08 00:51:26;;;;;;;3.97;0.98;;;;;;;;;;5052868;28;20041;-76
2023/03/08 00:53:52;;;;;;;6.03;1.40;;;;;;;;;;5052493;28;20044;-76
2023/03/08 00:56:19;;;;;;;5.10;2.00;;;;;;;;;;5036063;28;20040;-76
2023/03/08 00:58:45;;;;;;;5.88;1.00;;;;;;;;;;5053633;28;20037;-76
2023/03/08 01:01:16;;;;;;;2.90;1.00;;;;;;;;;;5017107;28;20163;-76
2023/03/08 01:03:42;;;;;;;3.45;1.00;;;;;;;;;;5077376;28;20441;-76
2023/03/08 01:06:13;;;;;;;6.85;1.20;;;;;;;;;;5039601;28;20060;-76
2023/03/08 01:08:40;;;;;;;4.05;1.20;;;;;;;;;;5051561;28;20380;-76
2023/03/08 01:11:15;;;;;;;4.15;0.93;;;;;;;;;;5012159;28;20183;-76
2023/03/08 01:13:41;;;;;;;3.20;0.95;;;;;;;;;;5035275;28;20049;-76
2023/03/08 01:16:14;;;;;;;5.72;1.50;;;;;;;;;;5053303;28;20045;-76
2023/03/08 01:18:40;;;;;;;5.03;1.05;;;;;;;;;;5053010;28;20075;-76
2023/03/08 01:21:06;;;;;;;3.75;1.23;;;;;;;;;;5052980;28;20045;-76
2023/03/08 01:23:32;;;;;;;3.70;1.10;;;;;;;;;;5053312;28;20483;-76
2023/03/08 01:26:03;;;;;;;3.60;1.00;;;;;;;;;;5051883;28;20090;-76
2023/03/08 01:28:29;;;;;;;7.90;1.30;;;;;;;;;;5052793;28;20044;-76
2023/03/08 01:31:00;;;;;;;5.90;1.40;;;;;;;;;;5052711;28;20057;-76
2023/03/08 01:33:26;;;;;;;2.33;0.98;;;;;;;;;;5052146;28;20064;-76
2023/03/08 01:35:52;;;;;;;5.90;1.60;;;;;;;;;;5053050;28;20094;-76
2023/03/08 01:38:18;;;;;;;6.00;1.27;;;;;;;;;;5051654;28;20483;-76
2023/03/08 01:40:44;;;;;;;6.78;1.10;;;;;;;;;;5052377;28;20048;-76
2023/03/08 01:43:21;;;;;;;1.90;1.00;;;;;;;;;;5063381;28;20044;-75
2023/03/08 01:46:02;;;;;;;8.75;1.23;;;;;;;;;;5044083;28;20041;-75
2023/03/08 01:48:34;;;;;;;2.85;1.20;;;;;;;;;;5051173;28;20068;-75
2023/03/08 01:51:02;;;;;;;3.67;1.40;;;;;;;;;;5051506;28;20041;-76
2023/03/08 01:53:28;;;;;;;5.18;1.73;;;;;;;;;;5051409;28;20044;-76
2023/03/08 01:55:55;;;;;;;2.78;1.45;;;;;;;;;;5068286;28;20071;-76
2023/03/08 01:58:21;;;;;;;5.10;1.95;;;;;;;;;;5051236;28;20153;-76
2023/03/08 02:00:47;;;;;;;8.88;1.58;;;;;;;;;;5044413;28;20064;-76
2023/03/08 02:03:13;;;;;;;4.00;1.67;;;;;;;;;;5046869;28;20041;-75
2023/03/08 02:05:41;;;;;;;4.35;1.67;;;;;;;;;;5052156;28;20041;-75
2023/03/08 02:08:07;;;;;;;6.88;1.80;;;;;;;;;;5049687;28;20048;-75
2023/03/08 02:10:34;;;;;;;4.28;1.90;;;;;;;;;;5050881;28;20045;-76
2023/03/08 02:13:00;;;;;;;5.40;1.70;;;;;;;;;;5050910;28;20053;-74
2023/03/08 02:15:26;;;;;;;7.15;2.08;;;;;;;;;;5053870;28;20045;-74
2023/03/08 02:17:52;;;;;;;5.65;1.73;;;;;;;;;;5064424;28;20394;-75
2023/03/08 02:20:22;;;;;;;4.20;1.83;;;;;;;;;;5050893;28;20041;-75
2023/03/08 02:22:52;;;;;;;6.70;1.92;;;;;;;;;;5037161;28;20029;-75
2023/03/08 02:25:25;;;;;;;4.25;2.13;;;;;;;;;;5052168;28;20037;-75
2023/03/08 02:27:51;;;;;;;6.43;2.33;;;;;;;;;;5051854;28;20116;-75
2023/03/08 02:30:22;;;;;;;6.25;2.22;;;;;;;;;;5034087;28;20065;-76
2023/03/08 02:32:48;;;;;;;8.20;2.58;;;;;;;;;;5051823;28;20072;-76
2023/03/08 02:35:14;;;;;;;10.13;3.20;;;;;;;;;;5052299;28;20049;-76
2023/03/08 02:37:40;;;;;;;9.00;2.80;;;;;;;;;;5051785;28;20562;-76
2023/03/08 02:40:07;;;;;;;8.55;3.58;;;;;;;;;;5057123;28;20519;-75
2023/03/08 02:42:33;;;;;;;6.47;3.55;;;;;;;;;;5047217;28;20041;-75
2023/03/08 02:44:59;;;;;;;6.88;3.70;;;;;;;;;;5052104;28;20162;-76
2023/03/08 02:47:25;;;;;;;13.95;3.78;;;;;;;;;;5052381;28;20044;-75
2023/03/08 02:49:51;;;;;;;10.27;3.53;;;;;;;;;;5050688;28;20060;-74
2023/03/08 02:52:18;;;;;;;7.65;3.50;;;;;;;;;;5050761;28;20115;-76
2023/03/08 02:54:44;;;;;;;7.15;3.40;;;;;;;;;;5050907;28;20048;-76
2023/03/08 02:57:10;;;;;;;6.85;3.45;;;;;;;;;;5051896;28;20112;-76
2023/03/08 02:59:36;;;;;;;10.00;3.88;;;;;;;;;;5050733;28;20037;-76
2023/03/08 03:02:02;;;;;;;7.05;3.97;;;;;;;;;;5046165;28;20098;-76
2023/03/08 03:04:29;;;;;;;8.88;3.78;;;;;;;;;;5049818;28;20040;-76
2023/03/08 03:06:56;;;;;;;7.40;3.63;;;;;;;;;;5049292;28;20048;-76
2023/03/08 03:09:22;;;;;;;8.07;3.72;;;;;;;;;;5051659;28;20037;-76
2023/03/08 03:11:48;;;;;;;10.05;4.03;;;;;;;;;;5050033;28;20063;-75
2023/03/08 03:14:14;;;;;;;7.75;3.72;;;;;;;;;;5052913;28;20033;-75
2023/03/08 03:16:40;;;;;;;6.10;3.70;;;;;;;;;;5055338;28;20040;-75
2023/03/08 03:19:07;;;;;;;6.20;3.47;;;;;;;;;;5055369;28;20120;-75
2023/03/08 03:21:33;;;;;;;8.27;4.03;;;;;;;;;;5054095;28;20033;-76
2023/03/08 03:23:59;;;;;;;8.05;3.97;;;;;;;;;;5055164;28;20128;-75
2023/03/08 03:26:25;;;;;;;10.93;4.35;;;;;;;;;;5053937;28;20106;-75
2023/03/08 03:28:51;;;;;;;7.20;4.93;;;;;;;;;;5039715;28;20038;-75
2023/03/08 03:31:19;;;;;;;8.32;4.30;;;;;;;;;;5055249;28;20053;-76
2023/03/08 03:33:46;;;;;;;13.85;5.63;;;;;;;;;;5053535;28;20128;-76
2023/03/08 03:36:14;;;;;;;9.40;5.38;;;;;;;;;;5053801;28;20053;-76
2023/03/08 03:38:40;;;;;;;12.73;7.00;;;;;;;;;;5054096;28;20049;-76
2023/03/08 03:41:16;;;;;;;11.20;7.10;;;;;;;;;;5054898;28;20629;-76
2023/03/08 03:43:42;;;;;;;;;;;;;;;;;;5037477;28;20163;-76
2023/03/08 03:46:10;;;;;;;13.10;8.65;;;;;;;;;;5053783;28;20367;-76
2023/03/08 03:48:36;;;;;;;13.77;8.73;;;;;;;;;;5053627;28;20127;-76
2023/03/08 03:51:04;;;;;;;14.18;7.72;;;;;;;;;;5053211;28;20056;-76
2023/03/08 03:53:30;;;;;;;13.75;8.13;;;;;;;;;;5054695;28;20036;-76
2023/03/08 03:56:01;;;;;;;12.63;8.15;;;;;;;;;;5053566;28;20041;-77
2023/03/08 03:58:27;;;;;;;17.83;8.45;;;;;;;;;;5053629;28;20091;-76
2023/03/08 04:00:55;;;;;;;17.63;9.75;;;;;;;;;;5047440;28;20042;-77
2023/03/08 04:03:21;;;;;;;13.55;8.25;;;;;;;;;;5051612;28;20045;-76
2023/03/08 04:05:47;;;;;;;15.70;8.75;;;;;;;;;;5053338;28;20108;-75
2023/03/08 04:08:13;;;;;;;16.95;9.45;;;;;;;;;;5053499;28;20565;-75
2023/03/08 04:10:39;;;;;;;15.77;8.80;;;;;;;;;;5054802;28;20044;-75
2023/03/08 04:13:05;;;;;;;18.23;10.07;;;;;;;;;;5052972;28;20048;-75
2023/03/08 04:15:31;;;;;;;17.13;9.68;;;;;;;;;;5053396;28;20041;-75
2023/03/08 04:17:57;;;;;;;13.77;10.05;;;;;;;;;;5054280;28;20403;-75
2023/03/08 04:20:23;;;;;;;15.52;10.15;;;;;;;;;;5053051;28;20123;-75
2023/03/08 04:22:50;;;;;;;15.98;10.00;;;;;;;;;;5052540;28;20033;-75
2023/03/08 04:25:16;;;;;;;15.93;10.38;;;;;;;;;;5052120;28;20507;-75
2023/03/08 04:27:42;;;;;;;19.45;12.27;;;;;;;;;;5054295;28;20033;-75
2023/03/08 04:30:08;;;;;;;21.80;12.23;;;;;;;;;;5054053;28;20534;-75
2023/03/08 04:32:34;;;;;;;23.25;14.02;;;;;;;;;;5053839;28;20051;-75
2023/03/08 04:35:00;;;;;;;21.92;15.13;;;;;;;;;;5052822;28;20381;-74
2023/03/08 04:37:26;;;;;;;23.38;16.48;;;;;;;;;;5052524;28;20052;-75
2023/03/08 04:39:53;;;;;;;23.80;16.10;;;;;;;;;;5052415;28;20037;-75
2023/03/08 04:42:19;;;;;;;28.20;16.75;;;;;;;;;;5052689;28;20037;-77
2023/03/08 04:44:45;;;;;;;25.95;17.25;;;;;;;;;;5053077;28;20453;-77
2023/03/08 04:47:11;;;;;;;22.83;15.90;;;;;;;;;;5052607;28;20044;-77
2023/03/08 04:49:37;;;;;;;22.83;16.30;;;;;;;;;;5052365;28;20052;-76
2023/03/08 04:52:03;;;;;;;24.70;17.40;;;;;;;;;;5053393;28;20045;-74
2023/03/08 04:54:29;;;;;;;27.45;16.92;;;;;;;;;;5053493;28;20107;-74
2023/03/08 04:56:55;;;;;;;28.05;17.60;;;;;;;;;;5053782;28;20048;-74
2023/03/08 04:59:21;;;;;;;25.13;16.98;;;;;;;;;;5053531;28;20044;-74
2023/03/08 05:01:47;;;;;;;24.63;17.00;;;;;;;;;;5048456;28;20135;-74
2023/03/08 05:04:14;;;;;;;32.05;16.80;;;;;;;;;;5035199;28;20499;-74
2023/03/08 05:06:40;;;;;;;25.17;16.33;;;;;;;;;;5052747;28;20078;-74
2023/03/08 05:09:06;;;;;;;24.73;16.05;;;;;;;;;;5053106;28;20434;-74
2023/03/08 05:11:32;;;;;;;26.85;16.95;;;;;;;;;;5053237;28;20040;-74
2023/03/08 05:13:58;;;;;;;23.00;16.00;;;;;;;;;;5053108;28;20039;-74
2023/03/08 05:16:25;;;;;;;23.90;16.42;;;;;;;;;;5053751;28;20510;-74
2023/03/08 05:18:51;;;;;;;25.35;16.80;;;;;;;;;;5085618;28;20068;-74
2023/03/08 05:21:19;;;;;;;25.48;17.00;;;;;;;;;;5053158;28;20103;-74
2023/03/08 05:23:46;;;;;;;26.40;16.23;;;;;;;;;;5052788;28;20157;-74
2023/03/08 05:26:13;;;;;;;27.33;16.88;;;;;;;;;;5044843;28;20495;-74
2023/03/08 05:28:40;;;;;;;25.45;16.30;;;;;;;;;;5051879;28;20452;-74
2023/03/08 05:31:14;;;;;;;26.45;17.08;;;;;;;;;;5051372;28;20067;-74
2023/03/08 05:33:41;;;;;;;27.60;17.30;;;;;;;;;;5051483;28;20055;-74
2023/03/08 05:36:08;;;;;;;27.20;17.23;;;;;;;;;;5037176;28;20044;-74
2023/03/08 05:38:34;;;;;;;21.70;14.90;;;;;;;;;;5051790;28;20053;-74
2023/03/08 05:41:01;;;;;;;21.92;15.02;;;;;;;;;;5051306;28;20403;-74
2023/03/08 05:43:27;;;;;;;25.17;16.80;;;;;;;;;;5051466;28;20076;-74
2023/03/08 05:45:54;;;;;;;23.77;16.75;;;;;;;;;;5051411;28;20033;-74
2023/03/08 05:48:20;;;;;;;24.67;16.80;;;;;;;;;;5052357;28;20146;-74
2023/03/08 05:50:46;;;;;;;25.35;16.80;;;;;;;;;;5051480;28;20053;-74
2023/03/08 05:53:12;;;;;;;21.85;13.82;;;;;;;;;;5034193;28;20111;-74
2023/03/08 05:55:38;;;;;;;22.20;14.27;;;;;;;;;;5052072;28;20446;-76
2023/03/08 05:58:05;;;;;;;28.40;16.45;;;;;;;;;;5034564;28;20068;-76
2023/03/08 06:00:31;;;;;;;26.75;16.27;;;;;;;;;;5047092;28;20407;-76
2023/03/08 06:02:58;;;;;;;23.58;15.35;;;;;;;;;;5043997;28;20052;-76
2023/03/08 06:05:24;;;;;;;25.08;16.38;;;;;;;;;;5051107;28;20041;-76
2023/03/08 06:07:50;;;;;;;22.55;15.68;;;;;;;;;;5051250;28;20043;-75
2023/03/08 06:10:17;;;;;;;23.08;15.35;;;;;;;;;;5050807;28;20439;-76
2023/03/08 06:12:43;;;;;;;25.77;16.27;;;;;;;;;;5052096;28;20088;-76
2023/03/08 06:15:09;;;;;;;24.00;14.50;;;;;;;;;;5052798;28;20048;-76
2023/03/08 06:17:35;;;;;;;25.73;15.93;;;;;;;;;;5064598;28;20047;-76
2023/03/08 06:20:01;;;;;;;23.75;16.05;;;;;;;;;;5050699;28;20080;-76
2023/03/08 06:22:27;;;;;;;25.20;14.82;;;;;;;;;;5050951;28;20029;-76
2023/03/08 06:24:53;;;;;;;21.50;15.00;;;;;;;;;;5051237;28;20130;-76
2023/03/08 06:27:19;;;;;;;27.33;14.00;;;;;;;;;;5050962;28;20072;-76
2023/03/08 06:29:47;;;;;;;22.88;14.95;;;;;;;;;;5050906;28;20045;-76
2023/03/08 06:32:13;;;;;;;23.40;15.60;;;;;;;;;;5051555;28;20435;-75
2023/03/08 06:34:39;;;;;;;27.08;15.57;;;;;;;;;;5034664;28;20064;-73
2023/03/08 06:37:05;;;;;;;30.63;17.38;;;;;;;;;;5050696;28;20384;-73
2023/03/08 06:39:33;;;;;;;28.67;18.60;;;;;;;;;;5051911;28;20040;-73
2023/03/08 06:42:01;;;;;;;27.20;17.75;;;;;;;;;;5051135;28;20487;-73
2023/03/08 06:44:27;;;;;;;26.63;17.08;;;;;;;;;;5050271;28;20045;-73
2023/03/08 06:46:53;;;;;;;30.65;17.13;;;;;;;;;;5051081;28;20091;-74
2023/03/08 06:49:20;;;;;;;26.98;17.85;;;;;;;;;;5054732;28;20032;-73
2023/03/08 06:51:46;;;;;;;32.33;17.63;;;;;;;;;;5062898;28;20048;-73
2023/03/08 06:54:16;;;;;;;26.50;17.48;;;;;;;;;;5055841;28;20044;-76
2023/03/08 06:56:43;;;;;;;25.67;16.85;;;;;;;;;;5054927;28;20450;-75
2023/03/08 06:59:09;;;;;;;26.02;17.10;;;;;;;;;;5054618;28;20068;-76
2023/03/08 07:01:35;;;;;;;25.38;16.23;;;;;;;;;;5054571;28;20120;-76
2023/03/08 07:04:01;;;;;;;23.40;16.38;;;;;;;;;;5054797;28;20044;-76
2023/03/08 07:06:27;;;;;;;24.45;16.92;;;;;;;;;;5054343;28;20045;-76
2023/03/08 07:08:53;;;;;;;24.58;16.55;;;;;;;;;;5054627;28;20040;-76
2023/03/08 07:11:19;;;;;;;22.38;14.95;;;;;;;;;;5054251;28;20487;-76
2023/03/08 07:13:45;;;;;;;23.33;15.85;;;;;;;;;;5055483;28;20086;-76
2023/03/08 07:16:12;;;;;;;23.75;16.00;;;;;;;;;;5053988;28;20040;-76
2023/03/08 07:18:39;;;;;;;23.98;16.58;;;;;;;;;;5055794;28;20068;-76
2023/03/08 07:21:05;;;;;;;23.08;16.63;;;;;;;;;;5055463;28;20045;-76
2023/03/08 07:23:31;;;;;;;24.60;15.63;;;;;;;;;;5054130;28;20372;-76
2023/03/08 07:25:57;;;;;;;20.00;14.50;;;;;;;;;;5054404;28;20435;-76
2023/03/08 07:28:23;;;;;;;20.48;13.52;;;;;;;;;;5053916;28;20048;-77
2023/03/08 07:30:51;;;;;;;20.58;14.30;;;;;;;;;;5055207;28;20561;-76
2023/03/08 07:33:18;;;;;;;20.13;14.15;;;;;;;;;;5053994;28;20045;-76
2023/03/08 07:35:44;;;;;;;19.40;13.02;;;;;;;;;;5053993;28;20044;-76
2023/03/08 07:38:13;;;;;;;17.15;12.70;;;;;;;;;;5054218;28;20487;-76
2023/03/08 07:40:39;;;;;;;18.30;12.23;;;;;;;;;;5054837;28;20064;-77
2023/03/08 07:43:05;;;;;;;15.70;11.98;;;;;;;;;;5053880;28;20047;-76
2023/03/08 07:45:31;;;;;;;17.67;11.38;;;;;;;;;;5053648;28;20051;-76
2023/03/08 07:47:58;;;;;;;16.90;12.70;;;;;;;;;;5053818;28;20045;-76
2023/03/08 07:50:24;;;;;;;16.67;12.27;;;;;;;;;;5053672;28;20458;-76
2023/03/08 07:52:50;;;;;;;14.30;11.50;;;;;;;;;;5053782;28;20116;-76
2023/03/08 07:55:16;;;;;;;15.77;11.43;;;;;;;;;;5054605;28;20574;-77
2023/03/08 07:57:42;;;;;;;17.77;12.38;;;;;;;;;;5054584;28;20483;-76
2023/03/08 08:00:09;;;;;;;16.70;11.23;;;;;;;;;;5053679;28;20040;-76
2023/03/08 08:02:35;;;;;;;15.82;11.43;;;;;;;;;;5049740;28;20119;-76
2023/03/08 08:05:02;;;;;;;16.83;11.57;;;;;;;;;;5070101;28;20041;-76
2023/03/08 08:07:29;;;;;;;16.45;11.82;;;;;;;;;;5054416;28;20116;-76
2023/03/08 08:09:55;;;;;;;18.05;12.65;;;;;;;;;;5053783;28;20459;-76
2023/03/08 08:12:22;;;;;;;18.75;12.15;;;;;;;;;;5036398;28;20187;-76
2023/03/08 08:14:51;;;;;;;18.90;13.43;;;;;;;;;;5058528;28;20040;-76
2023/03/08 08:17:18;;;;;;;20.55;11.77;;;;;;;;;;5067932;28;20495;-76
2023/03/08 08:19:44;;;;;;;17.88;12.27;;;;;;;;;;5054676;28;20120;-76
2023/03/08 08:22:10;;;;;;;16.38;11.43;;;;;;;;;;5054342;28;20033;-76
2023/03/08 08:24:36;;;;;;;15.77;11.20;;;;;;;;;;5054204;28;20056;-76
2023/03/08 08:27:02;;;;;;;15.95;11.27;;;;;;;;;;5054171;28;20037;-76
2023/03/08 08:29:28;;;;;;;15.05;10.75;;;;;;;;;;5054335;28;20478;-75
2023/03/08 08:31:55;;;;;;;14.38;10.68;;;;;;;;;;5052844;28;20056;-75
2023/03/08 08:34:22;;;;;;;17.33;10.20;;;;;;;;;;5035965;28;20037;-76
2023/03/08 08:36:48;;;;;;;14.18;8.90;;;;;;;;;;5036376;28;20033;-76
2023/03/08 08:39:14;;;;;;;18.45;8.18;;;;;;;;;;5053058;28;20043;-76
2023/03/08 08:41:40;;;;;;;13.05;8.88;;;;;;;;;;5052422;28;20041;-76
2023/03/08 08:44:06;;;;;;;10.50;7.78;;;;;;;;;;5053909;28;20040;-76
2023/03/08 08:46:33;;;;;;;10.98;7.70;;;;;;;;;;5053690;28;20107;-75
2023/03/08 08:49:00;;;;;;;11.63;7.82;;;;;;;;;;5086628;28;20537;-75
2023/03/08 08:51:27;;;;;;;9.80;7.22;;;;;;;;;;5052513;28;20048;-76
2023/03/08 08:53:53;;;;;;;11.50;7.13;;;;;;;;;;5052518;28;20055;-75
2023/03/08 08:56:23;;;;;;;12.15;7.68;;;;;;;;;;5052595;28;20072;-75
2023/03/08 08:58:50;;;;;;;11.07;8.10;;;;;;;;;;5053799;28;20036;-76
2023/03/08 09:01:20;;;;;;;10.82;7.47;;;;;;;;;;5052073;28;20048;-76
2023/03/08 09:03:46;;;;;;;10.63;7.40;;;;;;;;;;5052205;28;20094;-76
2023/03/08 09:06:13;;;;;;;11.60;7.70;;;;;;;;;;5035720;28;20045;-76
2023/03/08 09:08:40;;;;;;;13.93;7.50;;;;;;;;;;5051985;28;20064;-76
2023/03/08 09:11:07;;;;;;;10.88;7.20;;;;;;;;;;5068165;28;20141;-76
2023/03/08 09:13:33;;;;;;;10.73;7.65;;;;;;;;;;5053110;28;20052;-76
2023/03/08 09:15:59;;;;;;;9.30;7.28;;;;;;;;;;5052208;28;20043;-76
2023/03/08 09:18:26;;;;;;;10.18;7.53;;;;;;;;;;5051728;28;20068;-77
2023/03/08 09:20:52;;;;;;;12.20;7.35;;;;;;;;;;5053169;28;20037;-76
2023/03/08 09:23:18;;;;;;;12.90;7.60;;;;;;;;;;5052261;28;20440;-75
2023/03/08 09:25:44;;;;;;;11.32;7.97;;;;;;;;;;5051735;28;20033;-75
2023/03/08 09:28:11;;;;;;;15.38;8.80;;;;;;;;;;5068828;28;20483;-75
2023/03/08 09:30:37;;;;;;;12.73;9.00;;;;;;;;;;5065233;28;20139;-75
2023/03/08 09:33:03;;;;;;;13.07;8.75;;;;;;;;;;5085231;28;20070;-75
2023/03/08 09:35:29;;;;;;;11.35;8.10;;;;;;;;;;5052827;28;20037;-75
2023/03/08 09:37:55;;;;;;;13.00;8.02;;;;;;;;;;5051700;28;20041;-75
2023/03/08 09:40:26;;;;;;;12.00;7.97;;;;;;;;;;5051806;28;20041;-75
2023/03/08 09:42:53;;;;;;;10.23;7.78;;;;;;;;;;5051449;28;20120;-75
2023/03/08 09:45:21;;;;;;;11.55;8.10;;;;;;;;;;5051498;28;20062;-76
2023/03/08 09:47:50;;;;;;;10.82;7.90;;;;;;;;;;5051252;28;20128;-75
2023/03/08 09:50:20;;;;;;;12.43;8.20;;;;;;;;;;5051787;28;20049;-76
2023/03/08 09:52:47;;;;;;;10.15;6.88;;;;;;;;;;5051550;28;20124;-76
2023/03/08 09:55:19;;;;;;;11.68;7.50;;;;;;;;;;5051585;28;20518;-75
2023/03/08 09:57:52;;;;;;;9.73;6.93;;;;;;;;;;5034580;28;20052;-76
2023/03/08 10:00:26;;;;;;;12.88;6.78;;;;;;;;;;5048839;28;20098;-76
2023/03/08 10:03:02;;;;;;;12.68;8.95;;;;;;;;;;5043393;28;20049;-76
2023/03/08 10:05:35;;;;;;;12.82;7.93;;;;;;;;;;5065556;28;20040;-76
2023/03/08 10:08:28;;;;;;;14.07;8.63;;;;;;;;;;5034845;28;20056;-76
2023/03/08 10:10:59;;;;;;;14.40;7.88;;;;;;;;;;5040810;28;20068;-77
2023/03/08 10:13:47;;;;;;;10.75;6.47;;;;;;;;;;5051183;28;20060;-77
2023/03/08 10:16:16;;;;;;;8.32;5.63;;;;;;;;;;5051529;28;20509;-77
2023/03/08 10:18:48;;;;;;;10.38;5.32;;;;;;;;;;5052026;28;20064;-77
2023/03/08 10:21:16;;;;;;;7.53;5.03;;;;;;;;;;5051126;28;20041;-77
2023/03/08 10:23:43;;;;;;;8.95;4.82;;;;;;;;;;5051907;28;20399;-78
2023/03/08 10:26:11;;;;;;;11.90;5.07;;;;;;;;;;5051022;28;20037;-78
2023/03/08 10:28:37;;;;;;;6.32;4.22;;;;;;;;;;5050556;28;20044;-78
2023/03/08 10:31:16;;;;;;;6.95;4.60;;;;;;;;;;5067685;28;20045;-78
2023/03/08 10:33:42;;;;;;;7.47;3.90;;;;;;;;;;5050506;28;20053;-76
2023/03/08 10:36:16;;;;;;;6.82;4.13;;;;;;;;;;5051011;28;20049;-77
2023/03/08 10:38:42;;;;;;;8.07;4.35;;;;;;;;;;5050671;28;20041;-76
2023/03/08 10:41:16;;;;;;;8.55;4.30;;;;;;;;;;5050789;28;20083;-76
2023/03/08 10:43:47;;;;;;;9.70;4.50;;;;;;;;;;5050616;28;20048;-77
2023/03/08 10:46:16;;;;;;;6.72;3.80;;;;;;;;;;5050828;28;20549;-76
2023/03/08 10:48:42;;;;;;;7.78;4.28;;;;;;;;;;5050526;28;20051;-76
2023/03/08 10:51:24;;;;;;;6.53;3.80;;;;;;;;;;5067306;28;20052;-76
2023/03/08 10:53:56;;;;;;;10.30;4.68;;;;;;;;;;5050590;28;20045;-76
2023/03/08 10:56:25;;;;;;;5.97;3.80;;;;;;;;;;5050734;28;20055;-76
2023/03/08 10:58:54;;;;;;;5.43;2.80;;;;;;;;;;5051563;28;20181;-78
2023/03/08 11:01:25;;;;;;;4.80;3.05;;;;;;;;;;5048940;28;20454;-78
2023/03/08 11:04:05;;;;;;;4.50;2.30;;;;;;;;;;5051895;28;20098;-77
2023/03/08 11:06:31;;;;;;;5.03;2.42;;;;;;;;;;5051906;28;20045;-77
2023/03/08 11:09:02;;;;;;;4.90;2.67;;;;;;;;;;5033788;28;20076;-77
2023/03/08 11:11:28;;;;;;;6.55;2.70;;;;;;;;;;5050687;28;20044;-78
2023/03/08 11:13:54;;;;;;;4.57;2.50;;;;;;;;;;5051722;28;20080;-77
2023/03/08 11:16:39;;;;;;;4.95;2.90;;;;;;;;;;5034034;28;20044;-78
2023/03/08 11:19:09;;;;;;;7.35;2.67;;;;;;;;;;5052245;28;20467;-77
2023/03/08 11:21:43;;;;;;;4.43;2.47;;;;;;;;;;5050758;28;20403;-77
2023/03/08 11:24:09;;;;;;;5.05;2.30;;;;;;;;;;5050788;28;20487;-76
2023/03/08 11:26:58;;;;;;;6.82;2.60;;;;;;;;;;5050746;28;20068;-75
2023/03/08 11:29:43;;;;;;;4.85;2.58;;;;;;;;;;5051153;28;20148;-75
2023/03/08 11:32:29;;;;;;;7.88;2.38;;;;;;;;;;5033536;28;20407;-76
2023/03/08 11:34:59;;;;;;;4.53;1.83;;;;;;;;;;5052409;28;20525;-75
2023/03/08 11:37:36;;;;;;;7.03;2.30;;;;;;;;;;5045748;28;20049;-75
2023/03/08 11:40:24;;;;;;;4.03;2.38;;;;;;;;;;5029380;28;20056;-77
2023/03/08 11:42:53;;;;;;;3.45;2.15;;;;;;;;;;5051213;28;20037;-75
2023/03/08 11:45:23;;;;;;;4.35;2.30;;;;;;;;;;5053973;28;20037;-75
2023/03/08 11:48:07;;;;;;;3.65;1.10;;;;;;;;;;5054666;28;20118;-75
2023/03/08 11:50:33;;;;;;;3.53;1.55;;;;;;;;;;5041618;28;20049;-75
2023/03/08 11:53:17;;;;;;;3.28;1.77;;;;;;;;;;5036907;28;20120;-75
2023/03/08 11:55:49;;;;;;;4.70;2.08;;;;;;;;;;5043221;28;20033;-75
2023/03/08 11:58:25;;;;;;;2.65;1.40;;;;;;;;;;5053549;28;20056;-75
2023/03/08 12:00:53;;;;;;;4.80;2.10;;;;;;;;;;5054685;28;20029;-77
2023/03/08 12:03:29;;;;;;;3.90;1.85;;;;;;;;;;5023097;28;20042;-77
2023/03/08 12:05:57;;;;;;;4.93;1.85;;;;;;;;;;5053111;28;20037;-77
2023/03/08 12:08:43;;;;;;;4.97;1.88;;;;;;;;;;5054646;28;20037;-78
2023/03/08 12:11:18;;;;;;;4.50;1.83;;;;;;;;;;5054433;28;20047;-77
2023/03/08 12:13:47;;;;;;;3.90;2.00;;;;;;;;;;5053505;28;20071;-77
2023/03/08 12:16:25;;;;;;;4.20;1.50;;;;;;;;;;5054710;28;20041;-77
2023/03/08 12:18:51;;;;;;;4.22;1.40;;;;;;;;;;5053380;28;20041;-77
2023/03/08 12:21:26;;;;;;;3.83;1.50;;;;;;;;;;5036964;28;20098;-75
2023/03/08 12:23:58;;;;;;;6.83;1.87;;;;;;;;;;5052987;28;20033;-75
2023/03/08 12:26:47;;;;;;;4.43;1.95;;;;;;;;;;5053374;28;20276;-76
2023/03/08 12:29:33;;;;;;;4.45;1.80;;;;;;;;;;5053378;28;20126;-76
2023/03/08 12:32:01;;;;;;;4.57;2.00;;;;;;;;;;5085724;28;20110;-76
2023/03/08 12:34:29;;;;;;;4.28;1.70;;;;;;;;;;5036645;28;20045;-76
2023/03/08 12:36:55;;;;;;;4.60;1.65;;;;;;;;;;5054058;28;20073;-75
2023/03/08 12:39:27;;;;;;;3.70;1.80;;;;;;;;;;5052806;28;20131;-75
2023/03/08 12:42:13;;;;;;;3.83;1.77;;;;;;;;;;5052452;28;20060;-75
2023/03/08 12:44:40;;;;;;;6.22;2.47;;;;;;;;;;5023134;28;20398;-77
2023/03/08 12:47:15;;;;;;;6.97;2.10;;;;;;;;;;5051286;28;20119;-78
2023/03/08 12:49:42;;;;;;;6.40;2.50;;;;;;;;;;5052611;28;20037;-75
2023/03/08 12:52:17;;;;;;;6.15;2.35;;;;;;;;;;5052674;28;20395;-75
2023/03/08 12:54:45;;;;;;;3.45;1.10;;;;;;;;;;5052432;28;20068;-74
2023/03/08 12:57:15;;;;;;;7.18;2.30;;;;;;;;;;5053722;28;20051;-76
2023/03/08 12:59:41;;;;;;;4.57;2.20;;;;;;;;;;5052222;28;20037;-75
2023/03/08 13:02:17;;;;;;;5.60;2.28;;;;;;;;;;5045313;28;20506;-77
2023/03/08 13:04:43;;;;;;;5.30;1.57;;;;;;;;;;5036027;28;20029;-77
2023/03/08 13:07:09;;;;;;;5.28;1.58;;;;;;;;;;5053591;28;20072;-78
2023/03/08 13:09:41;;;;;;;4.00;1.40;;;;;;;;;;5052377;28;20064;-77
2023/03/08 13:12:25;;;;;;;2.30;1.17;;;;;;;;;;5053394;28;20087;-76
2023/03/08 13:15:10;;;;;;;3.78;1.65;;;;;;;;;;5035541;28;20124;-77
2023/03/08 13:17:40;;;;;;;3.88;1.50;;;;;;;;;;5044059;28;20047;-77
2023/03/08 13:20:10;;;;;;;2.95;1.40;;;;;;;;;;5053126;28;20052;-75
2023/03/08 13:22:48;;;;;;;5.00;1.95;;;;;;;;;;5052233;28;20045;-74
2023/03/08 13:25:21;;;;;;;3.13;1.60;;;;;;;;;;5053014;28;20099;-75
2023/03/08 13:28:04;;;;;;;6.93;2.00;;;;;;;;;;5040259;28;20041;-75
2023/03/08 13:30:33;;;;;;;5.28;1.90;;;;;;;;;;5040648;28;20499;-77
2023/03/08 13:33:00;;;;;;;6.70;2.08;;;;;;;;;;5052013;28;20437;-75
2023/03/08 13:35:26;;;;;;;3.95;1.58;;;;;;;;;;5035137;28;20138;-75
2023/03/08 13:37:53;;;;;;;3.75;1.50;;;;;;;;;;5051807;28;20041;-77
2023/03/08 13:40:20;;;;;;;3.22;1.65;;;;;;;;;;5052929;28;20073;-76
2023/03/08 13:42:57;;;;;;;4.32;1.70;;;;;;;;;;5053048;28;20049;-76
2023/03/08 13:45:23;;;;;;;4.40;1.80;;;;;;;;;;5051957;28;20068;-77
2023/03/08 13:47:49;;;;;;;7.60;1.50;;;;;;;;;;5051639;28;20083;-77
2023/03/08 13:50:21;;;;;;;4.38;2.00;;;;;;;;;;5051190;28;20049;-77
2023/03/08 13:52:47;;;;;;;6.30;2.22;;;;;;;;;;5053164;28;20116;-77
2023/03/08 13:55:18;;;;;;;4.68;1.77;;;;;;;;;;5051279;28;20048;-77
2023/03/08 13:57:47;;;;;;;4.18;1.95;;;;;;;;;;5051589;28;20120;-76
2023/03/08 14:00:16;;;;;;;5.03;2.00;;;;;;;;;;5051171;28;20041;-77
2023/03/08 14:02:45;;;;;;;4.75;2.10;;;;;;;;;;5071429;28;20037;-77
2023/03/08 14:05:16;;;;;;;4.93;2.47;;;;;;;;;;5051210;28;20083;-77
2023/03/08 14:07:42;;;;;;;4.25;2.20;;;;;;;;;;5051350;28;20495;-77
2023/03/08 14:10:14;;;;;;;4.35;1.90;;;;;;;;;;5051176;28;20053;-77
2023/03/08 14:12:43;;;;;;;4.03;1.60;;;;;;;;;;5052894;28;20086;-77
2023/03/08 14:15:16;;;;;;;4.85;1.83;;;;;;;;;;5034676;28;20087;-77
2023/03/08 14:17:43;;;;;;;5.25;1.80;;;;;;;;;;5052606;28;20033;-77
2023/03/08 14:20:18;;;;;;;3.70;1.95;;;;;;;;;;5052105;28;20131;-77
2023/03/08 14:22:46;;;;;;;5.00;2.20;;;;;;;;;;5051151;28;20106;-77
2023/03/08 14:25:26;;;;;;;4.88;1.73;;;;;;;;;;5034527;28;20612;-76
2023/03/08 14:27:52;;;;;;;4.22;1.70;;;;;;;;;;5051114;28;20216;-76
2023/03/08 14:30:23;;;;;;;3.83;1.80;;;;;;;;;;5050759;28;20076;-77
2023/03/08 14:33:06;;;;;;;2.85;1.25;;;;;;;;;;5051183;28;20183;-76
2023/03/08 14:35:37;;;;;;;3.20;1.35;;;;;;;;;;5051376;28;20518;-76
2023/03/08 14:38:12;;;;;;;4.45;1.90;;;;;;;;;;5050890;28;20037;-77
2023/03/08 14:40:45;;;;;;;3.70;1.42;;;;;;;;;;5051104;28;20459;-76